createdAt,value
2019-02-22T00:02:00.217Z,18.10
2019-02-22T00:04:28.799Z,19.90
2019-02-22T00:06:57.203Z,19.80
2019-02-22T00:09:25.696Z,19.20
2019-02-22T00:11:54.241Z,18.53
2019-02-22T00:14:22.645Z,19.80
2019-02-22T00:16:51.099Z,20.40
2019-02-22T00:19:19.602Z,20.33
2019-02-22T00:21:48.061Z,19.07
2019-02-22T00:24:16.607Z,19.20
2019-02-22T00:26:45.718Z,18.33
2019-02-22T00:29:14.172Z,19.17
2019-02-22T00:31:42.706Z,19.20
2019-02-22T00:34:11.234Z,18.87
2019-02-22T00:36:39.837Z,20.77
2019-02-22T00:39:08.904Z,18.77
2019-02-22T00:41:37.395Z,21.40
2019-02-22T00:44:05.860Z,21.70
2019-02-22T00:46:34.306Z,19.90
2019-02-22T00:49:02.803Z,20.67
2019-02-22T00:51:31.255Z,20.23
2019-02-22T00:53:59.708Z,20.17
2019-02-22T00:56:28.234Z,21.20
2019-02-22T00:58:56.661Z,20.50
2019-02-22T01:01:25.197Z,20.40
2019-02-22T01:03:53.677Z,21.77
2019-02-22T01:06:22.167Z,20.83
2019-02-22T01:08:50.663Z,22.17
2019-02-22T01:11:19.133Z,20.93
2019-02-22T01:13:47.634Z,24.07
2019-02-22T01:16:16.091Z,20.83
2019-02-22T01:18:44.556Z,22.93
2019-02-22T01:21:13.047Z,21.60
2019-02-22T01:23:41.629Z,23.37
2019-02-22T01:26:10.111Z,23.67
2019-02-22T01:28:38.592Z,24.20
2019-02-22T01:31:07.043Z,23.63
2019-02-22T01:33:35.554Z,24.10
2019-02-22T01:36:03.995Z,22.80
2019-02-22T01:38:32.457Z,24.80
2019-02-22T01:41:01.000Z,23.90
2019-02-22T01:43:29.638Z,23.80
2019-02-22T01:45:58.203Z,23.97
2019-02-22T01:48:40.336Z,23.33
2019-02-22T01:51:08.788Z,24.73
2019-02-22T01:53:37.242Z,24.20
2019-02-22T01:56:05.810Z,23.33
2019-02-22T01:58:34.300Z,24.37
2019-02-22T02:01:04.468Z,24.20
2019-02-22T02:03:32.918Z,24.77
2019-02-22T02:06:01.375Z,24.70
2019-02-22T02:08:29.874Z,23.40
2019-02-22T02:10:58.330Z,22.63
2019-02-22T02:13:27.018Z,23.53
2019-02-22T02:15:55.480Z,21.53
2019-02-22T02:18:23.984Z,23.97
2019-02-22T02:20:52.571Z,23.90
2019-02-22T02:23:21.050Z,23.87
2019-02-22T02:25:49.467Z,24.20
2019-02-22T02:28:18.011Z,22.03
2019-02-22T02:30:46.424Z,23.10
2019-02-22T02:33:14.882Z,23.47
2019-02-22T02:35:43.385Z,24.23
2019-02-22T02:38:11.936Z,24.23
2019-02-22T02:40:40.399Z,24.50
2019-02-22T02:43:09.001Z,24.00
2019-02-22T02:45:37.487Z,23.90
2019-02-22T02:48:05.948Z,24.80
2019-02-22T02:50:34.546Z,26.23
2019-02-22T02:53:02.994Z,26.40
2019-02-22T02:55:32.761Z,26.50
2019-02-22T02:58:01.248Z,25.07
2019-02-22T03:00:29.697Z,25.13
2019-02-22T03:02:58.843Z,25.43
2019-02-22T03:05:45.602Z,26.10
2019-02-22T03:08:17.811Z,25.07
2019-02-22T03:10:54.213Z,25.10
2019-02-22T03:13:26.896Z,25.83
2019-02-22T03:15:55.406Z,26.30
2019-02-22T03:18:23.867Z,27.30
2019-02-22T03:20:52.332Z,27.43
2019-02-22T03:23:20.815Z,27.20
2019-02-22T03:25:49.318Z,26.23
2019-02-22T03:28:17.750Z,28.30
2019-02-22T03:30:46.205Z,25.97
2019-02-22T03:33:14.709Z,27.00
2019-02-22T03:35:43.164Z,24.93
2019-02-22T03:38:11.616Z,27.73
2019-02-22T03:40:40.215Z,25.93
2019-02-22T03:43:08.671Z,25.87
2019-02-22T03:45:37.177Z,24.57
2019-02-22T03:48:05.624Z,23.77
2019-02-22T03:50:34.089Z,22.87
2019-02-22T03:53:04.117Z,23.07
2019-02-22T03:55:32.614Z,24.33
2019-02-22T03:58:01.071Z,24.43
2019-02-22T04:00:29.561Z,24.33
2019-02-22T04:02:58.015Z,26.03
2019-02-22T04:05:26.522Z,24.60
2019-02-22T04:07:54.975Z,22.47
2019-02-22T04:10:23.443Z,27.10
2019-02-22T04:12:51.936Z,25.70
2019-02-22T04:15:20.490Z,21.80
2019-02-22T04:17:48.951Z,22.53
2019-02-22T04:20:17.449Z,23.73
2019-02-22T04:22:45.933Z,17.27
2019-02-22T04:25:14.376Z,16.70
2019-02-22T04:27:42.871Z,15.50
2019-02-22T04:30:11.374Z,13.87
2019-02-22T04:32:39.787Z,13.90
2019-02-22T04:35:08.288Z,12.07
2019-02-22T04:37:36.823Z,12.03
2019-02-22T04:40:06.587Z,12.80
2019-02-22T04:42:35.087Z,12.67
2019-02-22T04:45:03.539Z,12.93
2019-02-22T04:47:31.999Z,13.10
2019-02-22T04:50:00.557Z,12.47
2019-02-22T04:52:29.051Z,12.63
2019-02-22T04:54:57.623Z,14.13
2019-02-22T04:57:26.205Z,14.80
2019-02-22T04:59:54.684Z,16.13
2019-02-22T05:02:23.132Z,15.50
2019-02-22T05:04:51.646Z,15.27
2019-02-22T05:07:20.129Z,15.77
2019-02-22T05:09:48.580Z,17.30
2019-02-22T05:12:17.090Z,17.60
2019-02-22T05:14:45.590Z,17.90
2019-02-22T05:17:14.160Z,17.67
2019-02-22T05:19:42.739Z,19.13
2019-02-22T05:22:11.182Z,17.93
2019-02-22T05:24:39.724Z,20.43
2019-02-22T05:27:08.148Z,18.60
2019-02-22T05:29:36.663Z,18.50
2019-02-22T05:32:05.121Z,19.10
2019-02-22T05:34:33.678Z,18.90
2019-02-22T05:37:02.823Z,18.00
2019-02-22T05:39:31.317Z,17.73
2019-02-22T05:41:59.731Z,20.33
2019-02-22T05:44:28.274Z,17.00
2019-02-22T05:47:00.492Z,15.50
2019-02-22T05:49:27.579Z,16.67
2019-02-22T05:51:56.066Z,16.20
2019-02-22T05:54:24.544Z,15.90
2019-02-22T05:56:55.133Z,16.83
2019-02-22T05:59:23.095Z,16.37
2019-02-22T06:01:51.632Z,18.40
2019-02-22T06:04:20.043Z,17.27
2019-02-22T06:06:48.503Z,16.40
2019-02-22T06:09:17.073Z,17.23
2019-02-22T06:11:45.561Z,17.90
2019-02-22T06:14:14.140Z,17.70
2019-02-22T06:16:44.456Z,16.00
2019-02-22T06:19:12.866Z,16.07
2019-02-22T06:22:00.639Z,15.80
2019-02-22T06:24:29.156Z,16.10
2019-02-22T06:26:57.560Z,17.40
2019-02-22T06:29:26.068Z,14.97
2019-02-22T06:31:54.526Z,14.13
2019-02-22T06:34:23.180Z,14.50
2019-02-22T06:37:01.233Z,14.23
2019-02-22T06:39:21.886Z,14.17
2019-02-22T06:41:50.363Z,14.40
2019-02-22T06:44:18.961Z,16.70
2019-02-22T06:46:47.427Z,15.37
2019-02-22T06:49:19.403Z,19.53
2019-02-22T06:51:47.671Z,19.73
2019-02-22T06:54:18.189Z,16.23
2019-02-22T06:56:47.402Z,16.77
2019-02-22T06:59:16.603Z,15.83
2019-02-22T07:01:45.707Z,16.67
2019-02-22T07:04:14.173Z,18.37
2019-02-22T07:06:46.427Z,15.03
2019-02-22T07:09:14.617Z,15.27
2019-02-22T07:11:54.224Z,16.10
2019-02-22T07:14:22.841Z,15.93
2019-02-22T07:16:51.300Z,15.90
2019-02-22T07:19:19.805Z,18.20
2019-02-22T07:21:52.831Z,18.43
2019-02-22T07:24:18.355Z,16.50
2019-02-22T07:26:46.915Z,17.73
2019-02-22T07:29:15.471Z,16.27
2019-02-22T07:31:43.964Z,16.20
2019-02-22T07:34:12.428Z,17.60
2019-02-22T07:36:40.927Z,16.73
2019-02-22T07:39:09.389Z,14.87
2019-02-22T07:41:37.847Z,15.30
2019-02-22T07:44:07.244Z,14.23
2019-02-22T07:46:35.862Z,15.90
2019-02-22T07:49:04.339Z,20.00
2019-02-22T07:51:32.928Z,14.67
2019-02-22T07:54:01.408Z,14.77
2019-02-22T07:56:30.587Z,13.17
2019-02-22T07:58:59.183Z,12.60
2019-02-22T08:01:28.540Z,13.00
2019-02-22T08:03:56.986Z,13.00
2019-02-22T08:06:25.487Z,12.47
2019-02-22T08:08:54.136Z,12.53
2019-02-22T08:11:22.647Z,12.80
2019-02-22T08:13:51.205Z,12.50
2019-02-22T08:16:19.701Z,11.20
2019-02-22T08:18:48.158Z,11.53
2019-02-22T08:21:16.749Z,11.33
2019-02-22T08:23:45.212Z,12.10
2019-02-22T08:26:13.662Z,12.13
2019-02-22T08:28:42.193Z,11.57
2019-02-22T08:31:10.674Z,10.33
2019-02-22T08:33:39.259Z,11.30
2019-02-22T08:36:07.741Z,12.10
2019-02-22T08:38:36.215Z,11.30
2019-02-22T08:41:04.718Z,10.57
2019-02-22T08:43:33.183Z,10.43
2019-02-22T08:46:01.637Z,10.13
2019-02-22T08:48:30.144Z,9.80
2019-02-22T08:50:58.632Z,9.40
2019-02-22T08:53:27.517Z,8.57
2019-02-22T08:55:55.997Z,7.50
2019-02-22T08:58:24.528Z,8.27
2019-02-22T09:00:52.982Z,8.40
2019-02-22T09:03:21.431Z,7.73
2019-02-22T09:05:49.922Z,8.23
2019-02-22T09:08:18.387Z,7.67
2019-02-22T09:10:46.835Z,6.83
2019-02-22T09:13:15.323Z,7.27
2019-02-22T09:15:43.962Z,7.37
2019-02-22T09:18:12.411Z,6.33
2019-02-22T09:20:40.910Z,9.43
2019-02-22T09:23:09.409Z,17.60
2019-02-22T09:25:37.876Z,5.77
2019-02-22T09:28:06.357Z,5.50
2019-02-22T09:30:34.839Z,5.17
2019-02-22T09:33:03.317Z,5.80
2019-02-22T09:35:34.398Z,4.60
2019-02-22T09:38:03.558Z,5.33
2019-02-22T09:40:32.449Z,5.30
2019-02-22T09:43:01.442Z,4.90
2019-02-22T09:45:30.438Z,4.77
2019-02-22T09:47:59.326Z,5.23
2019-02-22T09:50:28.232Z,4.40
2019-02-22T09:52:57.211Z,5.30
2019-02-22T09:55:26.101Z,5.00
2019-02-22T09:57:54.994Z,4.80
2019-02-22T10:00:23.991Z,4.70
2019-02-22T10:02:52.977Z,3.90
2019-02-22T10:05:21.868Z,5.57
2019-02-22T10:07:50.759Z,4.40
2019-02-22T10:10:19.652Z,4.40
2019-02-22T10:12:48.642Z,4.50
2019-02-22T10:15:17.636Z,4.33
2019-02-22T10:17:46.528Z,4.00
2019-02-22T10:20:15.423Z,3.43
2019-02-22T10:22:44.448Z,4.50
2019-02-22T10:25:13.301Z,4.97
2019-02-22T10:27:42.194Z,4.73
2019-02-22T10:30:13.505Z,9.77
2019-02-22T10:32:42.433Z,3.40
2019-02-22T10:35:11.426Z,2.00
2019-02-22T10:37:40.421Z,1.47
2019-02-22T10:40:11.142Z,2.10
2019-02-22T10:42:40.044Z,2.10
2019-02-22T10:45:11.374Z,2.50
2019-02-22T10:47:40.284Z,1.90
2019-02-22T10:50:10.300Z,1.60
2019-02-22T10:52:39.296Z,2.20
2019-02-22T10:55:11.357Z,2.03
2019-02-22T10:57:40.255Z,2.50
2019-02-22T11:00:16.694Z,2.10
2019-02-22T11:02:45.607Z,2.37
2019-02-22T11:05:14.606Z,2.13
2019-02-22T11:07:43.597Z,2.03
2019-02-22T11:10:13.308Z,2.30
2019-02-22T11:12:41.890Z,2.07
2019-02-22T11:15:11.816Z,2.07
2019-02-22T11:17:40.280Z,2.37
2019-02-22T11:20:10.028Z,2.57
2019-02-22T11:22:38.989Z,2.40
2019-02-22T11:25:10.848Z,2.40
2019-02-22T11:27:39.739Z,2.10
2019-02-22T11:30:11.702Z,2.23
2019-02-22T11:32:40.541Z,2.40
2019-02-22T11:35:11.019Z,1.87
2019-02-22T11:37:46.117Z,2.67
2019-02-22T11:40:15.354Z,2.83
2019-02-22T11:42:44.246Z,2.50
2019-02-22T11:45:13.138Z,3.20
2019-02-22T11:47:42.026Z,3.20
2019-02-22T11:50:13.202Z,4.03
2019-02-22T11:52:42.270Z,4.03
2019-02-22T11:55:12.693Z,4.23
2019-02-22T11:57:42.285Z,4.27
2019-02-22T12:00:15.504Z,4.70
2019-02-22T12:02:45.290Z,5.20
2019-02-22T12:05:15.661Z,5.90
2019-02-22T12:07:44.623Z,7.07
2019-02-22T12:10:14.480Z,6.87
2019-02-22T12:12:43.426Z,5.83
2019-02-22T12:15:14.333Z,5.23
2019-02-22T12:17:43.255Z,6.87
2019-02-22T12:20:13.562Z,7.77
2019-02-22T12:22:42.573Z,9.10
2019-02-22T12:25:12.363Z,10.13
2019-02-22T12:27:40.866Z,10.20
2019-02-22T12:30:10.784Z,9.63
2019-02-22T12:32:39.680Z,9.77
2019-02-22T12:35:09.482Z,10.03
2019-02-22T12:37:37.983Z,9.40
2019-02-22T12:40:07.983Z,9.47
2019-02-22T12:42:36.479Z,10.10
2019-02-22T12:45:09.659Z,9.23
2019-02-22T12:47:38.136Z,9.13
2019-02-22T12:50:08.081Z,9.33
2019-02-22T12:52:36.635Z,9.73
2019-02-22T12:55:08.906Z,9.97
2019-02-22T12:57:37.799Z,9.83
2019-02-22T13:00:14.674Z,9.37
2019-02-22T13:02:43.564Z,9.27
2019-02-22T13:05:18.495Z,8.97
2019-02-22T13:07:47.489Z,9.80
2019-02-22T13:10:16.380Z,10.30
2019-02-22T13:12:45.195Z,8.87
2019-02-22T13:15:33.416Z,7.90
2019-02-22T13:18:03.095Z,8.87
2019-02-22T13:20:32.629Z,9.50
2019-02-22T13:23:01.104Z,9.70
2019-02-22T13:25:29.551Z,8.83
2019-02-22T13:27:58.010Z,10.03
2019-02-22T13:30:26.553Z,9.10
2019-02-22T13:32:55.034Z,9.90
2019-02-22T13:35:23.511Z,9.77
2019-02-22T13:37:52.023Z,9.85
2019-02-22T13:40:20.579Z,9.10
2019-02-22T13:42:49.056Z,9.50
2019-02-22T13:45:25.932Z,9.13
2019-02-22T13:47:47.640Z,9.80
2019-02-22T13:50:17.167Z,10.27
2019-02-22T13:52:45.697Z,12.07
2019-02-22T13:55:15.186Z,9.20
2019-02-22T13:57:43.739Z,9.77
2019-02-22T14:00:13.751Z,10.23
2019-02-22T14:02:42.201Z,9.03
2019-02-22T14:05:10.410Z,8.43
2019-02-22T14:07:38.930Z,7.33
2019-02-22T14:10:08.048Z,8.13
2019-02-22T14:12:36.596Z,8.07
2019-02-22T14:15:07.158Z,8.00
2019-02-22T14:17:35.611Z,8.27
2019-02-22T14:20:05.559Z,8.27
2019-02-22T14:22:34.047Z,8.03
2019-02-22T14:25:02.530Z,7.73
2019-02-22T14:27:30.988Z,8.10
2019-02-22T14:29:59.443Z,8.97
2019-02-22T14:32:27.935Z,8.85
2019-02-22T14:34:56.483Z,8.40
2019-02-22T14:37:25.039Z,8.28
2019-02-22T14:40:02.537Z,7.97
2019-02-22T14:42:24.250Z,8.80
2019-02-22T14:44:52.751Z,8.50
2019-02-22T14:47:21.267Z,8.33
2019-02-22T14:49:49.721Z,8.73
2019-02-22T14:52:18.209Z,8.15
2019-02-22T14:54:46.671Z,8.30
2019-02-22T14:57:15.272Z,8.23
2019-02-22T14:59:43.729Z,8.57
2019-02-22T15:02:12.182Z,9.03
2019-02-22T15:04:40.717Z,8.17
2019-02-22T15:07:09.144Z,7.90
2019-02-22T15:09:37.600Z,8.20
2019-02-22T15:12:06.112Z,14.83
2019-02-22T15:14:34.577Z,11.33
2019-02-22T15:17:22.783Z,7.67
2019-02-22T15:19:51.236Z,8.30
2019-02-22T15:22:19.745Z,7.55
2019-02-22T15:24:48.192Z,7.75
2019-02-22T15:27:16.707Z,8.73
2019-02-22T15:29:45.112Z,8.85
2019-02-22T15:32:13.670Z,9.23
2019-02-22T15:34:42.162Z,8.05
2019-02-22T15:37:10.735Z,9.15
2019-02-22T15:39:39.219Z,8.65
2019-02-22T15:42:07.670Z,7.80
2019-02-22T15:44:36.171Z,8.25
2019-02-22T15:47:11.766Z,7.35
2019-02-22T15:49:34.778Z,8.18
2019-02-22T15:52:03.259Z,8.05
2019-02-22T15:54:31.663Z,7.45
2019-02-22T15:57:00.121Z,7.58
2019-02-22T15:59:29.311Z,8.08
2019-02-22T16:01:57.759Z,8.08
2019-02-22T16:04:45.949Z,8.70
2019-02-22T16:07:14.418Z,8.13
2019-02-22T16:09:42.873Z,8.60
2019-02-22T16:12:11.380Z,8.18
2019-02-22T16:14:39.839Z,8.15
2019-02-22T16:17:08.285Z,8.80
2019-02-22T16:19:36.830Z,8.48
2019-02-22T16:22:05.310Z,9.20
2019-02-22T16:24:33.779Z,8.55
2019-02-22T16:27:02.254Z,8.70
2019-02-22T16:29:30.704Z,8.45
2019-02-22T16:32:00.363Z,9.35
2019-02-22T16:34:28.850Z,8.75
2019-02-22T16:36:57.303Z,8.50
2019-02-22T16:39:25.751Z,8.90
2019-02-22T16:41:54.240Z,8.40
2019-02-22T16:44:22.766Z,8.73
2019-02-22T16:46:51.349Z,8.85
2019-02-22T16:49:19.840Z,8.53
2019-02-22T16:51:48.414Z,8.43
2019-02-22T16:54:16.851Z,7.87
2019-02-22T16:56:45.338Z,9.85
2019-02-22T16:59:15.205Z,8.18
2019-02-22T17:01:43.902Z,9.80
2019-02-22T17:04:12.458Z,9.20
2019-02-22T17:06:40.943Z,8.38
2019-02-22T17:09:10.137Z,8.00
2019-02-22T17:11:38.618Z,7.40
2019-02-22T17:14:07.100Z,6.87
2019-02-22T17:16:45.224Z,8.28
2019-02-22T17:19:05.699Z,7.78
2019-02-22T17:21:34.284Z,7.58
2019-02-22T17:24:02.740Z,7.75
2019-02-22T17:26:31.239Z,8.30
2019-02-22T17:28:59.825Z,8.48
2019-02-22T17:31:28.311Z,8.00
2019-02-22T17:33:56.792Z,7.65
2019-02-22T17:36:27.181Z,7.65
2019-02-22T17:38:55.310Z,7.70
2019-02-22T17:41:23.805Z,8.95
2019-02-22T17:43:52.303Z,8.10
2019-02-22T17:46:20.734Z,8.88
2019-02-22T17:48:49.200Z,8.35
2019-02-22T17:51:19.437Z,8.18
2019-02-22T17:53:48.966Z,8.13
2019-02-22T17:56:18.456Z,8.03
2019-02-22T17:58:47.305Z,7.72
2019-02-22T18:01:16.179Z,8.83
2019-02-22T18:03:45.234Z,8.30
2019-02-22T18:06:14.116Z,8.03
2019-02-22T18:08:42.936Z,8.08
2019-02-22T18:11:11.916Z,8.43
2019-02-22T18:13:40.783Z,7.80
2019-02-22T18:16:09.609Z,8.78
2019-02-22T18:18:38.675Z,7.17
2019-02-22T18:21:07.766Z,9.25
2019-02-22T18:23:36.656Z,7.45
2019-02-22T18:26:05.649Z,6.50
2019-02-22T18:28:34.131Z,7.50
2019-02-22T18:31:03.123Z,7.58
2019-02-22T18:33:31.566Z,7.75
2019-02-22T18:36:00.195Z,7.70
2019-02-22T18:38:28.784Z,6.83
2019-02-22T18:40:57.227Z,7.45
2019-02-22T18:43:25.663Z,8.08
2019-02-22T18:45:54.146Z,7.75
2019-02-22T18:48:24.275Z,8.38
2019-02-22T18:50:52.827Z,8.00
2019-02-22T18:53:21.366Z,8.95
2019-02-22T18:55:50.554Z,7.17
2019-02-22T18:58:19.044Z,8.13
2019-02-22T19:00:47.526Z,7.95
2019-02-22T19:03:15.969Z,7.78
2019-02-22T19:05:44.414Z,8.23
2019-02-22T19:08:12.896Z,7.47
2019-02-22T19:10:41.332Z,7.95
2019-02-22T19:13:09.911Z,8.10
2019-02-22T19:15:38.399Z,7.80
2019-02-22T19:18:06.839Z,7.35
2019-02-22T19:20:35.279Z,7.45
2019-02-22T19:23:03.800Z,9.20
2019-02-22T19:25:32.251Z,12.47
2019-02-22T19:28:00.791Z,10.10
2019-02-22T19:30:29.274Z,8.38
2019-02-22T19:32:57.709Z,7.95
2019-02-22T19:35:26.198Z,10.05
2019-02-22T19:37:54.651Z,8.75
2019-02-22T19:40:23.695Z,8.35
2019-02-22T19:42:52.192Z,9.70
2019-02-22T19:45:20.733Z,8.58
2019-02-22T19:47:49.215Z,8.48
2019-02-22T19:50:17.692Z,7.70
2019-02-22T19:52:46.139Z,8.50
2019-02-22T19:58:19.131Z,8.05
2019-02-22T20:00:47.596Z,7.97
2019-02-22T20:03:16.059Z,7.42
2019-02-22T20:05:44.629Z,8.20
2019-02-22T20:08:13.211Z,7.83
2019-02-22T20:10:41.649Z,8.13
2019-02-22T20:13:10.174Z,8.83
2019-02-22T20:15:38.653Z,8.55
2019-02-22T20:18:08.671Z,8.55
2019-02-22T20:20:37.121Z,8.00
2019-02-22T20:23:05.633Z,8.10
2019-02-22T20:25:34.828Z,8.95
2019-02-22T20:28:03.324Z,7.95
2019-02-22T20:30:31.784Z,8.25
2019-02-22T20:33:00.279Z,7.85
2019-02-22T20:35:29.642Z,8.50
2019-02-22T20:37:58.267Z,7.85
2019-02-22T20:40:26.712Z,7.15
2019-02-22T20:42:55.224Z,7.03
2019-02-22T20:45:23.662Z,7.10
2019-02-22T20:47:52.112Z,6.78
2019-02-22T20:50:20.669Z,7.35
2019-02-22T20:52:49.066Z,7.12
2019-02-22T20:55:17.520Z,6.28
2019-02-22T20:57:46.007Z,6.50
2019-02-22T21:00:17.566Z,6.50
2019-02-22T21:02:45.955Z,6.65
2019-02-22T21:05:14.437Z,6.12
2019-02-22T21:07:42.891Z,6.45
2019-02-22T21:10:12.441Z,5.30
2019-02-22T21:12:40.919Z,5.60
2019-02-22T21:15:10.563Z,5.95
2019-02-22T21:17:39.008Z,6.30
2019-02-22T21:20:08.975Z,6.20
2019-02-22T21:22:37.419Z,5.30
2019-02-22T21:25:07.067Z,5.92
2019-02-22T21:27:35.559Z,5.50
2019-02-22T21:30:04.500Z,5.20
2019-02-22T21:32:32.945Z,6.60
2019-02-22T21:35:01.422Z,5.15
2019-02-22T21:37:29.863Z,6.05
2019-02-22T21:39:58.365Z,5.83
2019-02-22T21:42:26.840Z,5.25
2019-02-22T21:44:55.280Z,5.85
2019-02-22T21:47:23.726Z,5.83
2019-02-22T21:49:52.200Z,6.25
2019-02-22T21:52:20.631Z,5.33
2019-02-22T21:54:49.078Z,5.80
2019-02-22T21:57:17.570Z,5.17
2019-02-22T21:59:46.020Z,5.78
2019-02-22T22:02:14.457Z,5.50
2019-02-22T22:04:42.934Z,5.45
2019-02-22T22:07:11.378Z,6.05
2019-02-22T22:09:39.843Z,6.42
2019-02-22T22:12:08.440Z,5.50
2019-02-22T22:14:36.864Z,5.65
2019-02-22T22:17:05.312Z,5.53
2019-02-22T22:19:33.797Z,6.10
2019-02-22T22:22:02.237Z,5.90
2019-02-22T22:24:30.794Z,5.85
2019-02-22T22:26:59.271Z,6.00
2019-02-22T22:29:27.716Z,5.20
2019-02-22T22:31:56.160Z,5.78
2019-02-22T22:34:24.714Z,5.03
2019-02-22T22:36:53.178Z,5.22
2019-02-22T22:39:21.618Z,4.80
2019-02-22T22:41:50.303Z,5.20
2019-02-22T22:44:18.745Z,5.85
2019-02-22T22:46:47.206Z,5.65
2019-02-22T22:49:15.682Z,6.30
2019-02-22T22:51:44.119Z,5.28
2019-02-22T22:54:12.555Z,5.50
2019-02-22T22:56:41.039Z,5.65
2019-02-22T22:59:09.482Z,5.80
2019-02-22T23:01:38.027Z,5.15
2019-02-22T23:04:06.502Z,6.25
2019-02-22T23:06:34.961Z,6.00
2019-02-22T23:09:05.574Z,6.12
2019-02-22T23:11:34.061Z,5.55
2019-02-22T23:14:02.499Z,5.78
2019-02-22T23:16:30.943Z,5.90
2019-02-22T23:19:02.062Z,6.20
2019-02-22T23:21:30.283Z,7.12
2019-02-22T23:23:58.742Z,6.53
2019-02-22T23:26:27.225Z,6.42
2019-02-22T23:28:55.663Z,5.42
2019-02-22T23:31:24.131Z,5.70
2019-02-22T23:33:52.599Z,6.30
2019-02-22T23:36:21.054Z,6.30
2019-02-22T23:38:49.496Z,6.60
2019-02-22T23:41:37.305Z,5.72
2019-02-22T23:44:05.786Z,5.75
2019-02-22T23:46:34.262Z,5.90
2019-02-22T23:49:12.813Z,6.35
2019-02-22T23:51:32.850Z,7.00
2019-02-22T23:54:01.295Z,8.03
2019-02-22T23:56:29.774Z,7.58
2019-02-22T23:58:58.307Z,7.10
